Historyczne dane pomiarowe

Dodano dane terminowe – wersja testowa.

Dane z okresu 1951-2019

Wersja bazy: 1.34 [2019-03-16, lista zmian], aktualizacja planowana na 2019-04-15

Dane meteo z obszaru Polski uzyskane na podstawie danych udostępnionych przez Instytut Meteorologii i Gospodarki Wodnej – Państwowy Instytut Badawczy.

 

Wybierz Datę:    

       

TemperaturaWilgotnośćZachmurzenieWiatrCiśnienieWidzialnośćZjawiska
 Data    tng td wb rh cc ccl cl cm ch dir g1 g2 mslp ppp      
1999-07-13 00:00:00 17.8--- 17.0 17.395wxwxwx1wx--1011.31001.4 5.0---wxw1
1999-07-13 01:00:00 17.4--- 16.6 16.995wxwxwx1wx--1010.91001.0----wx
1999-07-13 02:00:00 17.1--- 16.3 16.695wxwxwxwx1wx--1010.11000.2----wx
1999-07-13 03:00:00 16.8--- 16.2 16.496wxwxwxwx1wx--1009.7 999.8----wx
1999-07-13 04:00:00 18.0--- 17.5 17.797wxwxwxwx2wx--1009.6 999.7----wx
1999-07-13 05:00:00 19.9--- 18.8 19.294wxwxwxwx1wx--1009.1 999.3----wx
1999-07-13 06:00:00 21.1--- 18.5 19.485wxwxwxwx1wx--1008.9 999.1 0.0---wx
1999-07-13 07:00:00 23.0--- 19.8 20.882wxwxwx1wx--1008.3 998.6----wx
1999-07-13 08:00:00 24.5--- 19.2 20.972wxwxwx1wx--1007.8 998.1----wx
1999-07-13 09:00:00 25.2--- 17.1 19.961wxwxwxwx2wx--1007.4 997.8----wx
1999-07-13 10:00:00 26.0--- 18.6 21.064wxwxwxwx3wx--1007.2 997.6----wx
1999-07-13 11:00:00 26.6--- 18.6 21.262wxwxwxwx3wx--1006.6 997.0----wx
1999-07-13 12:00:00 28.4--- 17.6 21.252wxwxwxwx3wx--1005.3 995.8 0.0---wx
1999-07-13 13:00:00 28.8--- 16.9 20.949wxwxwxwx2wx--1004.7 995.2----wx
1999-07-13 14:00:00 27.9--- 16.3 20.349wxwxwxwx3wx--1004.3 994.8----wx
1999-07-13 15:00:00 23.4--- 17.6 19.670wxwxwxwx2wx--1004.4 994.7----wx
1999-07-13 16:00:00 24.9--- 18.5 20.668wxwxwxwx1wx--1003.7 994.1----wx
1999-07-13 17:00:00 26.2--- 17.3 20.358wxwxwxwx2wx--1003.1 993.5----wx
1999-07-13 18:00:00 25.6--- 15.7 19.254wxwxwxwx3wx--1002.9 993.3 0.0---wxw1
1999-07-13 19:00:00 24.3--- 17.3 19.765wxwxwxwx2wx--1003.1 993.5----wx
1999-07-13 20:00:00 22.5--- 16.3 18.568wxwxwxwxwx2wx--1002.8 993.1----wx
1999-07-13 21:00:00 20.7--- 16.7 18.178wxwxwxwx2wx--1002.3 992.6----wx
1999-07-13 22:00:00 20.1--- 17.0 18.182wxwxwx1wx--1002.0 992.2----wx
1999-07-13 23:00:00 19.6--- 17.0 17.985wxwxwx3wx--1001.5 991.7----wx

 

Źródłem pochodzenia danych jest Instytut Meteorologii i Gospodarki Wodnej – Państwowy Instytut Badawczy. Dane Instytutu Meteorologii i Gospodarki Wodnej – Państwowego Instytutu Badawczego zostały przetworzone.

Dane źródłowe można odnaleźć na stronie https://dane.imgw.pl